createdAt,value
2018-12-04T00:00:42.588Z,8.40
2018-12-04T00:03:16.586Z,8.40
2018-12-04T00:13:24.876Z,8.30
2018-12-04T00:15:58.570Z,8.30
2018-12-04T00:18:32.788Z,8.30
2018-12-04T00:21:06.682Z,8.30
2018-12-04T00:23:38.392Z,8.30
2018-12-04T00:26:12.674Z,8.20
2018-12-04T00:28:44.752Z,8.30
2018-12-04T00:31:18.993Z,8.30
2018-12-04T00:41:42.875Z,8.30
2018-12-04T00:44:11.114Z,8.40
2018-12-04T00:46:39.442Z,8.40
2018-12-04T00:49:07.630Z,8.40
2018-12-04T00:51:39.669Z,8.40
2018-12-04T00:54:24.014Z,8.50
2018-12-04T00:56:56.182Z,8.50
2018-12-04T00:59:31.607Z,8.50
2018-12-04T01:02:05.975Z,8.50
2018-12-04T01:04:40.122Z,8.50
2018-12-04T01:07:11.590Z,8.50
2018-12-04T01:12:17.435Z,8.50
2018-12-04T01:14:51.388Z,8.50
2018-12-04T01:17:27.543Z,8.50
2018-12-04T01:20:01.602Z,8.50
2018-12-04T01:22:35.786Z,8.50
2018-12-04T01:25:09.951Z,8.50
2018-12-04T01:27:44.151Z,8.50
2018-12-04T01:30:18.331Z,8.50
2018-12-04T01:32:52.273Z,8.60
2018-12-04T01:35:32.837Z,8.60
2018-12-04T01:43:40.552Z,8.70
2018-12-04T01:46:14.767Z,8.70
2018-12-04T01:48:48.905Z,8.60
2018-12-04T01:56:22.875Z,8.60
2018-12-04T02:01:28.704Z,8.70
2018-12-04T02:04:05.549Z,8.60
2018-12-04T02:06:40.106Z,8.60
2018-12-04T02:12:09.758Z,8.60
2018-12-04T02:14:48.288Z,8.60
2018-12-04T02:17:22.619Z,8.60
2018-12-04T02:24:57.794Z,8.60
2018-12-04T02:27:31.549Z,8.60
2018-12-04T02:30:03.179Z,8.60
2018-12-04T02:35:06.541Z,8.60
2018-12-04T02:37:38.357Z,8.50
2018-12-04T02:40:10.331Z,8.60
2018-12-04T02:45:13.538Z,8.50
2018-12-04T02:47:47.822Z,8.50
2018-12-04T02:55:23.977Z,8.60
2018-12-04T03:00:27.694Z,8.50
2018-12-04T03:02:59.525Z,8.50
2018-12-04T03:05:31.517Z,8.50
2018-12-04T03:10:43.398Z,8.50
2018-12-04T03:13:17.674Z,8.50
2018-12-04T03:15:51.855Z,8.50
2018-12-04T03:18:30.841Z,8.50
2018-12-04T03:21:02.322Z,8.50
2018-12-04T03:26:10.615Z,8.50
2018-12-04T03:31:18.007Z,8.50
2018-12-04T03:33:52.032Z,8.50
2018-12-04T03:36:26.055Z,8.50
2018-12-04T03:39:00.333Z,8.50
2018-12-04T03:44:07.767Z,8.60
2018-12-04T03:46:41.762Z,8.60
2018-12-04T03:49:15.859Z,8.60
2018-12-04T03:51:49.794Z,8.60
2018-12-04T03:54:28.211Z,8.60
2018-12-04T03:59:36.400Z,8.60
2018-12-04T04:02:10.759Z,8.50
2018-12-04T04:04:45.119Z,8.60
2018-12-04T04:09:55.151Z,8.60
2018-12-04T04:12:29.227Z,8.60
2018-12-04T04:15:03.408Z,8.60
2018-12-04T04:17:37.183Z,8.60
2018-12-04T04:20:11.086Z,8.60
2018-12-04T04:22:45.285Z,8.60
2018-12-04T04:25:18.982Z,8.60
2018-12-04T04:27:53.067Z,8.60
2018-12-04T04:32:56.333Z,8.60
2018-12-04T04:35:26.318Z,8.60
2018-12-04T04:38:01.037Z,8.60
2018-12-04T04:40:34.697Z,8.70
2018-12-04T04:43:08.681Z,8.60
2018-12-04T04:45:40.551Z,8.60
2018-12-04T04:54:08.749Z,8.60
2018-12-04T04:56:53.315Z,8.70
2018-12-04T05:02:25.690Z,8.70
2018-12-04T05:08:07.517Z,8.70
2018-12-04T05:10:41.200Z,8.70
2018-12-04T05:13:19.148Z,8.70
2018-12-04T05:15:57.355Z,8.70
2018-12-04T05:18:31.318Z,8.70
2018-12-04T05:21:05.558Z,8.70
2018-12-04T05:23:39.347Z,8.70
2018-12-04T05:26:17.238Z,8.70
2018-12-04T05:28:51.205Z,8.70
2018-12-04T05:31:25.051Z,8.70
2018-12-04T05:33:58.995Z,8.70
2018-12-04T05:36:32.860Z,8.70
2018-12-04T05:39:07.280Z,8.70
2018-12-04T05:44:21.059Z,8.70
2018-12-04T05:46:54.908Z,8.70
2018-12-04T05:49:29.208Z,8.70
2018-12-04T05:54:43.364Z,8.60
2018-12-04T06:00:01.459Z,8.60
2018-12-04T06:02:35.805Z,8.60
2018-12-04T06:05:07.743Z,8.60
2018-12-04T06:07:45.903Z,8.60
2018-12-04T06:10:17.670Z,8.60
2018-12-04T06:12:52.133Z,8.60
2018-12-04T06:15:27.978Z,8.60
2018-12-04T06:21:01.421Z,8.50
2018-12-04T06:23:35.439Z,8.50
2018-12-04T06:26:09.618Z,8.60
2018-12-04T06:28:43.684Z,8.50
2018-12-04T06:31:15.325Z,8.50
2018-12-04T06:33:49.702Z,8.50
2018-12-04T06:38:52.947Z,8.50
2018-12-04T06:41:25.258Z,8.40
2018-12-04T06:46:47.187Z,8.40
2018-12-04T06:49:21.417Z,8.40
2018-12-04T06:51:55.568Z,8.40
2018-12-04T06:54:29.652Z,8.30
2018-12-04T06:57:03.911Z,8.30
2018-12-04T06:59:37.895Z,8.20
2018-12-04T07:04:43.799Z,8.10
2018-12-04T07:07:15.456Z,8.10
2018-12-04T07:09:52.037Z,8.00
2018-12-04T07:12:28.215Z,8.00
2018-12-04T07:15:02.098Z,7.90
2018-12-04T07:17:36.001Z,7.90
2018-12-04T07:20:10.017Z,7.80
2018-12-04T07:22:46.141Z,7.80
2018-12-04T07:25:20.363Z,7.80
2018-12-04T07:27:54.356Z,7.70
2018-12-04T07:30:28.431Z,7.70
2018-12-04T07:33:02.421Z,7.70
2018-12-04T07:35:34.378Z,7.60
2018-12-04T07:38:08.855Z,7.60
2018-12-04T07:43:12.947Z,7.60
2018-12-04T07:45:45.158Z,7.50
2018-12-04T07:48:18.913Z,7.50
2018-12-04T07:50:52.996Z,7.50
2018-12-04T07:53:27.175Z,7.50
2018-12-04T07:56:05.220Z,7.50
2018-12-04T07:58:39.315Z,7.50
2018-12-04T08:01:13.175Z,7.50
2018-12-04T08:03:44.810Z,7.50
2018-12-04T08:08:48.258Z,7.60
2018-12-04T08:11:20.559Z,7.60
2018-12-04T08:13:52.763Z,7.60
2018-12-04T08:16:24.905Z,7.60
2018-12-04T08:19:05.975Z,7.60
2018-12-04T08:21:40.550Z,7.60
2018-12-04T08:24:18.712Z,7.60
2018-12-04T08:26:52.894Z,7.60
2018-12-04T08:29:27.106Z,7.50
2018-12-04T08:32:01.376Z,7.40
2018-12-04T08:34:35.497Z,7.40
2018-12-04T08:37:09.352Z,7.40
2018-12-04T08:39:43.667Z,7.40
2018-12-04T08:42:15.344Z,7.30
2018-12-04T08:49:54.881Z,7.00
2018-12-04T08:52:31.236Z,6.90
2018-12-04T08:57:36.970Z,6.90
2018-12-04T09:00:11.238Z,6.80
2018-12-04T09:02:45.123Z,6.80
2018-12-04T09:05:21.245Z,6.80
2018-12-04T09:07:55.446Z,6.90
2018-12-04T09:10:29.714Z,6.90
2018-12-04T09:13:07.667Z,6.90
2018-12-04T09:15:41.731Z,6.90
2018-12-04T09:20:45.188Z,6.90
2018-12-04T09:23:19.005Z,6.90
2018-12-04T09:25:53.402Z,6.90
2018-12-04T09:30:56.886Z,7.00
2018-12-04T09:33:29.064Z,7.00
2018-12-04T09:38:35.045Z,7.10
2018-12-04T09:43:40.570Z,7.10
2018-12-04T09:46:12.254Z,7.10
2018-12-04T09:56:22.935Z,7.10
2018-12-04T09:58:56.774Z,7.10
2018-12-04T10:01:30.896Z,7.10
2018-12-04T10:04:15.639Z,7.10
2018-12-04T10:07:06.773Z,7.20
2018-12-04T10:09:41.291Z,7.30
2018-12-04T10:12:15.316Z,7.20
2018-12-04T10:17:26.499Z,7.40
2018-12-04T10:20:00.741Z,7.40
2018-12-04T10:22:34.979Z,7.40
2018-12-04T10:27:38.479Z,7.50
2018-12-04T10:32:51.117Z,7.60
2018-12-04T10:35:25.013Z,7.60
2018-12-04T10:37:56.565Z,7.60
2018-12-04T10:40:28.694Z,7.70
2018-12-04T10:43:00.731Z,7.80
2018-12-04T10:45:41.742Z,7.70
2018-12-04T10:48:15.523Z,7.80
2018-12-04T10:50:49.686Z,7.80
2018-12-04T10:53:23.866Z,7.70
2018-12-04T10:55:57.925Z,7.60
2018-12-04T10:58:31.985Z,7.50
2018-12-04T11:01:09.266Z,7.50
2018-12-04T11:06:11.255Z,7.50
2018-12-04T11:08:45.099Z,7.40
2018-12-04T11:11:19.259Z,7.50
2018-12-04T11:13:53.246Z,7.50
2018-12-04T11:16:27.235Z,7.40
2018-12-04T11:19:01.190Z,7.40
2018-12-04T11:21:35.078Z,7.50
2018-12-04T11:24:19.803Z,7.40
2018-12-04T11:26:53.754Z,7.50
2018-12-04T11:29:29.674Z,7.50
2018-12-04T11:32:03.964Z,7.50
2018-12-04T11:34:37.728Z,7.50
2018-12-04T11:37:11.787Z,7.60
2018-12-04T11:39:46.078Z,7.60
2018-12-04T11:47:24.706Z,7.50
2018-12-04T11:49:56.481Z,7.50
2018-12-04T11:55:11.215Z,7.40
2018-12-04T11:57:43.196Z,7.40
2018-12-04T12:02:57.785Z,7.30
2018-12-04T12:05:35.800Z,7.30
2018-12-04T12:08:07.539Z,7.30
2018-12-04T12:10:42.030Z,7.30
2018-12-04T12:13:16.391Z,7.30
2018-12-04T12:15:48.108Z,7.30
2018-12-04T12:18:21.903Z,7.30
2018-12-04T12:23:53.356Z,7.30
2018-12-04T12:26:21.573Z,7.30
2018-12-04T12:28:53.714Z,7.40
2018-12-04T12:31:23.510Z,7.50
2018-12-04T12:34:03.951Z,7.70
2018-12-04T12:36:36.119Z,7.90
2018-12-04T12:39:10.183Z,8.00
2018-12-04T12:41:44.108Z,7.90
2018-12-04T12:49:52.282Z,7.70
2018-12-04T12:55:01.866Z,7.60
2018-12-04T13:00:08.195Z,7.50
2018-12-04T13:02:42.461Z,7.40
2018-12-04T13:05:14.402Z,7.40
2018-12-04T13:07:48.781Z,7.40
2018-12-04T13:12:56.546Z,7.30
2018-12-04T13:15:34.662Z,7.20
2018-12-04T13:18:08.535Z,7.20
2018-12-04T13:23:24.840Z,7.10
2018-12-04T13:28:33.660Z,7.00
2018-12-04T13:31:05.558Z,7.00
2018-12-04T13:33:40.107Z,7.00
2018-12-04T13:36:30.381Z,7.00
2018-12-04T13:39:17.014Z,7.00
2018-12-04T13:44:49.019Z,6.90
2018-12-04T13:47:23.003Z,6.90
2018-12-04T13:50:06.115Z,6.90
2018-12-04T13:55:20.565Z,6.90
2018-12-04T14:00:58.210Z,6.90
2018-12-04T14:06:33.249Z,6.80
2018-12-04T14:09:06.924Z,6.80
2018-12-04T14:11:35.293Z,6.80
2018-12-04T14:14:09.605Z,6.80
2018-12-04T14:16:37.963Z,6.70
2018-12-04T14:22:03.087Z,6.60
2018-12-04T14:24:31.509Z,6.50
2018-12-04T14:26:59.704Z,6.60
2018-12-04T14:32:28.283Z,6.50
2018-12-04T14:35:06.207Z,6.40
2018-12-04T14:37:34.572Z,6.40
2018-12-04T14:40:03.229Z,6.30
2018-12-04T14:42:31.630Z,6.30
2018-12-04T14:44:59.914Z,6.20
2018-12-04T14:47:28.329Z,6.20
2018-12-04T14:49:56.597Z,6.10
2018-12-04T14:52:24.851Z,6.10
2018-12-04T14:54:53.157Z,6.00
2018-12-04T14:57:21.399Z,5.90
2018-12-04T14:59:49.694Z,5.90
2018-12-04T15:02:18.040Z,5.80
2018-12-04T15:04:46.875Z,5.80
2018-12-04T15:07:15.471Z,5.80
2018-12-04T15:09:43.734Z,5.70
2018-12-04T15:12:12.307Z,5.70
2018-12-04T15:14:40.742Z,5.60
2018-12-04T15:17:09.026Z,5.50
2018-12-04T15:19:37.390Z,5.50
2018-12-04T15:22:05.714Z,5.40
2018-12-04T15:24:34.034Z,5.30
2018-12-04T15:27:02.350Z,5.20
2018-12-04T15:29:30.733Z,5.20
2018-12-04T15:31:58.998Z,5.10
2018-12-04T15:34:27.351Z,5.00
2018-12-04T15:36:56.643Z,4.90
2018-12-04T15:39:25.182Z,4.90
2018-12-04T15:41:53.398Z,4.80
2018-12-04T15:44:21.646Z,4.70
2018-12-04T15:46:49.926Z,4.70
2018-12-04T15:49:18.336Z,4.60
2018-12-04T15:51:46.720Z,4.60
2018-12-04T15:54:15.029Z,4.50
2018-12-04T15:56:43.322Z,4.40
2018-12-04T15:59:11.559Z,4.40
2018-12-04T16:01:40.007Z,4.30
2018-12-04T16:04:10.055Z,4.20
2018-12-04T16:06:38.268Z,4.20
2018-12-04T16:09:07.563Z,4.20
2018-12-04T16:11:35.900Z,4.10
2018-12-04T16:14:16.590Z,4.00
2018-12-04T16:16:44.810Z,4.00
2018-12-04T16:19:13.152Z,3.90
2018-12-04T16:21:45.199Z,3.70
2018-12-04T16:24:17.401Z,3.60
2018-12-04T16:29:27.278Z,3.60
2018-12-04T16:32:01.096Z,3.50
2018-12-04T16:34:35.055Z,3.40
2018-12-04T16:39:45.920Z,3.30
2018-12-04T16:42:26.606Z,3.20
2018-12-04T16:44:58.714Z,3.10
2018-12-04T16:50:26.721Z,3.00
2018-12-04T16:53:01.409Z,3.00
2018-12-04T16:58:09.964Z,2.90
2018-12-04T17:00:39.834Z,2.80
2018-12-04T17:06:08.542Z,2.80
2018-12-04T17:11:49.816Z,2.60
2018-12-04T17:14:18.031Z,2.60
2018-12-04T17:19:44.031Z,2.60
2018-12-04T17:22:12.263Z,2.50
2018-12-04T17:24:40.555Z,2.50
2018-12-04T17:27:08.878Z,2.40
2018-12-04T17:29:37.108Z,2.30
2018-12-04T17:32:05.513Z,2.30
2018-12-04T17:34:33.967Z,2.30
2018-12-04T17:37:02.402Z,2.20
2018-12-04T17:39:31.666Z,2.20
2018-12-04T17:41:59.908Z,2.20
2018-12-04T17:44:28.244Z,2.10
2018-12-04T17:46:56.486Z,2.10
2018-12-04T17:49:28.696Z,2.00
2018-12-04T17:51:56.974Z,2.00
2018-12-04T17:54:35.394Z,1.90
2018-12-04T17:57:09.164Z,1.90
2018-12-04T18:02:44.770Z,1.70
2018-12-04T18:05:13.058Z,1.70
2018-12-04T18:07:41.326Z,1.70
2018-12-04T18:10:09.544Z,1.70
2018-12-04T18:12:37.878Z,1.60
2018-12-04T18:15:07.338Z,1.60
2018-12-04T18:17:35.580Z,1.60
2018-12-04T18:20:04.117Z,1.50
2018-12-04T18:22:32.354Z,1.50
2018-12-04T18:25:00.529Z,1.50
2018-12-04T18:27:28.801Z,1.40
2018-12-04T18:29:57.485Z,1.40
2018-12-04T18:32:25.805Z,1.40
2018-12-04T18:34:53.982Z,1.30
2018-12-04T18:37:22.202Z,1.30
2018-12-04T18:39:50.485Z,1.30
2018-12-04T18:42:18.673Z,1.20
2018-12-04T18:44:46.941Z,1.20
2018-12-04T18:47:15.461Z,1.20
2018-12-04T18:49:43.706Z,1.20
2018-12-04T18:52:11.912Z,1.10
2018-12-04T18:54:40.183Z,1.10
2018-12-04T18:57:08.401Z,1.10
2018-12-04T18:59:36.689Z,1.00
2018-12-04T19:02:05.020Z,1.00
2018-12-04T19:04:33.202Z,0.90
2018-12-04T19:07:01.519Z,1.00
2018-12-04T19:09:29.782Z,0.90
2018-12-04T19:11:58.099Z,1.00
2018-12-04T19:14:26.371Z,1.00
2018-12-04T19:16:54.759Z,1.00
2018-12-04T19:19:22.956Z,0.90
2018-12-04T19:21:51.169Z,0.90
2018-12-04T19:24:19.434Z,0.90
2018-12-04T19:26:47.676Z,0.80
2018-12-04T19:29:15.863Z,0.80
2018-12-04T19:31:44.070Z,0.80
2018-12-04T19:34:12.357Z,0.70
2018-12-04T19:36:40.566Z,0.70
2018-12-04T19:39:09.418Z,0.60
2018-12-04T19:41:37.715Z,0.60
2018-12-04T19:44:05.997Z,0.60
2018-12-04T19:46:34.306Z,0.60
2018-12-04T19:49:02.498Z,0.60
2018-12-04T19:51:31.335Z,0.50
2018-12-04T19:53:59.508Z,0.40
2018-12-04T19:56:27.693Z,0.40
2018-12-04T19:58:55.975Z,0.30
2018-12-04T20:01:24.299Z,0.30
2018-12-04T20:03:52.500Z,0.30
2018-12-04T20:06:20.686Z,0.30
2018-12-04T20:08:53.587Z,0.30
2018-12-04T20:11:21.875Z,0.30
2018-12-04T20:13:50.710Z,0.20
2018-12-04T20:16:19.089Z,0.20
2018-12-04T20:18:47.415Z,0.10
2018-12-04T20:21:15.773Z,0.20
2018-12-04T20:23:44.066Z,0.10
2018-12-04T20:26:12.372Z,0.10
2018-12-04T20:28:40.671Z,0.10
2018-12-04T20:31:09.081Z,0.10
2018-12-04T20:33:37.294Z,-1.00
2018-12-04T20:36:05.466Z,0.10
2018-12-04T20:38:33.967Z,0.00
2018-12-04T20:41:02.283Z,0.00
2018-12-04T20:43:30.578Z,0.00
2018-12-04T20:46:05.766Z,0.00
2018-12-04T20:48:29.286Z,0.00
2018-12-04T20:50:57.682Z,-0.10
2018-12-04T20:53:25.870Z,-0.10
2018-12-04T20:55:54.109Z,-0.20
2018-12-04T20:58:22.382Z,-0.20
2018-12-04T21:00:50.621Z,-0.20
2018-12-04T21:03:18.879Z,-0.20
2018-12-04T21:05:47.043Z,-0.30
2018-12-04T21:08:15.327Z,-0.30
2018-12-04T21:10:43.481Z,-0.40
2018-12-04T21:13:14.659Z,-0.40
2018-12-04T21:15:42.100Z,-0.40
2018-12-04T21:18:10.498Z,-0.40
2018-12-04T21:20:38.665Z,-0.40
2018-12-04T21:23:07.075Z,-0.30
2018-12-04T21:25:35.249Z,-0.30
2018-12-04T21:28:08.926Z,-0.30
2018-12-04T21:30:42.560Z,-0.30
2018-12-04T21:33:16.166Z,-0.30
2018-12-04T21:35:49.844Z,-0.30
2018-12-04T21:38:23.507Z,-0.30
2018-12-04T21:40:57.142Z,-0.30
2018-12-04T21:43:30.797Z,-0.40
2018-12-04T21:46:04.427Z,-0.40
2018-12-04T21:48:34.658Z,-0.50
2018-12-04T21:51:03.043Z,-0.50
2018-12-04T21:53:31.297Z,-0.40
2018-12-04T21:55:59.500Z,-0.40
2018-12-04T21:58:27.775Z,-0.40
2018-12-04T22:00:55.990Z,-0.30
2018-12-04T22:03:24.198Z,-0.30
2018-12-04T22:05:52.383Z,-0.30
2018-12-04T22:08:20.993Z,-0.30
2018-12-04T22:10:49.209Z,-0.30
2018-12-04T22:13:17.417Z,-0.30
2018-12-04T22:15:45.625Z,-0.30
2018-12-04T22:18:13.830Z,-0.30
2018-12-04T22:20:42.114Z,-0.30
2018-12-04T22:23:10.328Z,-0.30
2018-12-04T22:25:38.734Z,-0.40
2018-12-04T22:28:07.249Z,-0.40
2018-12-04T22:30:35.447Z,-0.40
2018-12-04T22:33:03.951Z,-0.40
2018-12-04T22:35:32.223Z,-0.30
2018-12-04T22:38:00.434Z,-0.40
2018-12-04T22:40:28.645Z,-0.40
2018-12-04T22:42:56.822Z,-0.40
2018-12-04T22:45:25.418Z,-0.40
2018-12-04T22:47:54.478Z,-0.40
2018-12-04T22:50:22.810Z,-0.40
2018-12-04T22:52:51.109Z,-0.50
2018-12-04T22:55:19.333Z,-0.50
2018-12-04T22:57:47.621Z,-0.60
2018-12-04T23:00:31.756Z,-0.60
2018-12-04T23:03:00.110Z,-0.60
2018-12-04T23:05:28.354Z,-0.70
2018-12-04T23:07:56.618Z,-0.60
2018-12-04T23:10:24.887Z,-0.60
2018-12-04T23:12:53.149Z,-0.60
2018-12-04T23:15:21.730Z,-0.70
2018-12-04T23:17:50.222Z,-0.70
2018-12-04T23:20:18.450Z,-0.70
2018-12-04T23:22:52.747Z,-0.70
2018-12-04T23:25:21.060Z,-0.70
2018-12-04T23:27:49.263Z,-0.60
2018-12-04T23:30:17.490Z,-0.70
2018-12-04T23:32:45.729Z,-0.70
2018-12-04T23:35:13.970Z,-0.70
2018-12-04T23:37:42.174Z,-0.70
2018-12-04T23:40:10.549Z,-0.60
2018-12-04T23:42:38.769Z,-0.70
2018-12-04T23:45:07.172Z,-0.70
2018-12-04T23:47:35.508Z,-0.70
2018-12-04T23:50:04.019Z,-0.70
2018-12-04T23:52:32.334Z,-0.70
2018-12-04T23:55:00.645Z,-0.70
2018-12-04T23:57:28.978Z,-0.70
2018-12-04T23:59:57.205Z,-0.70
